createdAt,value
2023-04-15T00:00:31.747Z,100.143
2023-04-15T00:01:31.794Z,100.143
2023-04-15T00:02:31.910Z,100.357
2023-04-15T00:03:32.168Z,100.286
2023-04-15T00:04:32.119Z,100.143
2023-04-15T00:05:31.968Z,100.286
2023-04-15T00:06:32.000Z,100.214
2023-04-15T00:07:32.050Z,100.143
2023-04-15T00:08:32.094Z,100.357
2023-04-15T00:09:32.125Z,100.143
2023-04-15T00:10:32.155Z,100.143
2023-04-15T00:11:32.201Z,100.214
2023-04-15T00:12:32.235Z,100.286
2023-04-15T00:13:32.277Z,100.286
2023-04-15T00:14:32.323Z,100.357
2023-04-15T00:15:32.380Z,100.214
2023-04-15T00:16:32.450Z,100.286
2023-04-15T00:17:32.461Z,100.143
2023-04-15T00:18:32.494Z,100.143
2023-04-15T00:19:32.534Z,100.286
2023-04-15T00:20:32.567Z,100.357
2023-04-15T00:21:32.608Z,100.429
2023-04-15T00:22:32.651Z,100.143
2023-04-15T00:23:32.692Z,100.286
2023-04-15T00:24:32.732Z,100.143
2023-04-15T00:25:32.776Z,100.5
2023-04-15T00:26:32.809Z,100.5
2023-04-15T00:27:32.850Z,100.357
2023-04-15T00:28:32.883Z,100.5
2023-04-15T00:29:32.931Z,100.429
2023-04-15T00:30:33.031Z,100.214
2023-04-15T00:31:33.013Z,100.214
2023-04-15T00:32:33.081Z,100.429
2023-04-15T00:33:33.087Z,100.286
2023-04-15T00:34:33.129Z,100.5
2023-04-15T00:35:33.171Z,100.357
2023-04-15T00:36:33.203Z,100.143
2023-04-15T00:37:33.248Z,100.214
2023-04-15T00:38:33.290Z,100.143
2023-04-15T00:39:33.331Z,100.214
2023-04-15T00:40:33.389Z,100.357
2023-04-15T00:41:33.403Z,100.214
2023-04-15T00:42:33.455Z,100.286
2023-04-15T00:43:33.490Z,100.214
2023-04-15T00:44:33.540Z,100.214
2023-04-15T00:45:33.619Z,100.214
2023-04-15T00:46:33.622Z,100.357
2023-04-15T00:47:33.674Z,100.143
2023-04-15T00:48:33.695Z,100.214
2023-04-15T00:49:33.738Z,100.286
2023-04-15T00:50:33.800Z,100.214
2023-04-15T00:51:33.827Z,100.286
2023-04-15T00:52:33.869Z,100.143
2023-04-15T00:53:33.906Z,100.214
2023-04-15T00:54:33.945Z,100
2023-04-15T00:55:33.993Z,100.143
2023-04-15T00:56:34.028Z,100.214
2023-04-15T00:57:34.085Z,100.5
2023-04-15T00:58:34.117Z,100.357
2023-04-15T00:59:34.157Z,100.143
2023-04-15T01:00:34.211Z,100.143
2023-04-15T01:01:34.295Z,100.214
2023-04-15T01:02:34.374Z,100.214
2023-04-15T01:03:34.614Z,100.429
2023-04-15T01:04:34.450Z,100.214
2023-04-15T01:05:34.416Z,100.429
2023-04-15T01:06:34.454Z,100.143
2023-04-15T01:07:34.523Z,100.143
2023-04-15T01:08:34.524Z,100.143
2023-04-15T01:09:34.576Z,100.214
2023-04-15T01:10:34.610Z,100.214
2023-04-15T01:11:34.654Z,100.286
2023-04-15T01:12:34.709Z,100.143
2023-04-15T01:13:34.742Z,100.143
2023-04-15T01:14:34.776Z,100.286
2023-04-15T01:15:34.824Z,100.357
2023-04-15T01:16:34.903Z,100
2023-04-15T01:17:34.938Z,100.214
2023-04-15T01:18:34.953Z,100.214
2023-04-15T01:19:34.987Z,100.214
2023-04-15T01:20:35.029Z,100.214
2023-04-15T01:21:35.063Z,100.143
2023-04-15T01:22:35.113Z,100.143
2023-04-15T01:23:35.171Z,100.143
2023-04-15T01:24:35.207Z,100.214
2023-04-15T01:25:35.237Z,100.357
2023-04-15T01:26:35.280Z,100.214
2023-04-15T01:27:35.326Z,100.214
2023-04-15T01:28:35.368Z,100.357
2023-04-15T01:29:35.411Z,100.429
2023-04-15T01:30:35.460Z,100.357
2023-04-15T01:31:35.498Z,100.214
2023-04-15T01:32:35.553Z,100.357
2023-04-15T01:33:35.571Z,100.429
2023-04-15T01:34:36.029Z,100.214
2023-04-15T01:35:35.688Z,100.143
2023-04-15T01:36:35.693Z,100.143
2023-04-15T01:37:35.737Z,100.214
2023-04-15T01:38:35.782Z,100.214
2023-04-15T01:39:35.814Z,100.286
2023-04-15T01:40:35.854Z,100.214
2023-04-15T01:41:35.893Z,100.286
2023-04-15T01:42:35.933Z,100.286
2023-04-15T01:43:35.972Z,100.286
2023-04-15T01:44:36.020Z,100.143
2023-04-15T01:45:36.063Z,100.286
2023-04-15T01:46:36.109Z,100.143
2023-04-15T01:47:36.152Z,100.143
2023-04-15T01:48:36.187Z,100.286
2023-04-15T01:49:36.240Z,100.143
2023-04-15T01:50:36.281Z,100.286
2023-04-15T01:51:36.306Z,100.214
2023-04-15T01:52:36.357Z,100
2023-04-15T01:53:36.393Z,100.214
2023-04-15T01:54:36.441Z,100.214
2023-04-15T01:55:36.482Z,100.143
2023-04-15T01:56:36.530Z,100.143
2023-04-15T01:57:36.567Z,100
2023-04-15T01:58:36.609Z,100.143
2023-04-15T01:59:36.651Z,100.214
2023-04-15T02:00:36.712Z,100.143
2023-04-15T02:01:36.728Z,100.143
2023-04-15T02:02:36.875Z,100.286
2023-04-15T02:03:36.926Z,100.143
2023-04-15T02:04:36.858Z,100.143
2023-04-15T02:05:36.902Z,100.143
2023-04-15T02:06:36.937Z,100.143
2023-04-15T02:07:36.987Z,100.286
2023-04-15T02:08:37.036Z,100.143
2023-04-15T02:09:37.066Z,100.214
2023-04-15T02:10:37.104Z,100.214
2023-04-15T02:11:37.149Z,100.143
2023-04-15T02:12:37.184Z,100.143
2023-04-15T02:13:37.232Z,100.286
2023-04-15T02:14:37.278Z,100.143
2023-04-15T02:15:37.325Z,100.143
2023-04-15T02:16:37.418Z,100.286
2023-04-15T02:17:37.471Z,100.214
2023-04-15T02:18:37.438Z,100.286
2023-04-15T02:19:37.473Z,100.143
2023-04-15T02:20:37.517Z,100.214
2023-04-15T02:21:37.567Z,100.214
2023-04-15T02:22:37.608Z,100.143
2023-04-15T02:23:37.640Z,100.143
2023-04-15T02:24:37.676Z,100.286
2023-04-15T02:25:37.732Z,100.286
2023-04-15T02:26:37.756Z,100.214
2023-04-15T02:27:37.803Z,100.143
2023-04-15T02:28:37.845Z,100.143
2023-04-15T02:29:37.890Z,100.143
2023-04-15T02:30:37.924Z,100.143
2023-04-15T02:31:37.982Z,100.214
2023-04-15T02:32:38.094Z,100.143
2023-04-15T02:33:38.044Z,100.429
2023-04-15T02:34:38.082Z,100.214
2023-04-15T02:35:38.118Z,100.143
2023-04-15T02:36:38.164Z,100
2023-04-15T02:37:38.203Z,100.214
2023-04-15T02:38:38.276Z,100.214
2023-04-15T02:39:38.326Z,100.143
2023-04-15T02:40:38.326Z,100.429
2023-04-15T02:41:38.370Z,100.143
2023-04-15T02:42:38.416Z,100.143
2023-04-15T02:43:38.445Z,100.143
2023-04-15T02:44:38.490Z,100.143
2023-04-15T02:45:38.580Z,100.143
2023-04-15T02:46:38.568Z,100.143
2023-04-15T02:47:38.633Z,100.143
2023-04-15T02:48:38.653Z,100.143
2023-04-15T02:49:38.689Z,100.143
2023-04-15T02:50:38.724Z,100.214
2023-04-15T02:51:38.769Z,100.214
2023-04-15T02:52:38.810Z,100.143
2023-04-15T02:53:38.851Z,100.143
2023-04-15T02:54:38.903Z,100.214
2023-04-15T02:55:38.932Z,100.143
2023-04-15T02:56:38.970Z,100.286
2023-04-15T02:57:39.025Z,100.286
2023-04-15T02:58:39.050Z,100.143
2023-04-15T02:59:39.095Z,100.214
2023-04-15T03:00:39.135Z,100.143
2023-04-15T03:01:39.209Z,100.214
2023-04-15T03:02:39.453Z,100.214
2023-04-15T03:03:39.325Z,100.143
2023-04-15T03:04:39.305Z,100.143
2023-04-15T03:05:39.334Z,100.143
2023-04-15T03:06:39.372Z,100.214
2023-04-15T03:07:39.407Z,100.143
2023-04-15T03:08:39.450Z,100.214
2023-04-15T03:09:39.493Z,100.143
2023-04-15T03:10:39.536Z,100.214
2023-04-15T03:11:39.582Z,100.143
2023-04-15T03:12:39.627Z,100.214
2023-04-15T03:13:39.663Z,100.214
2023-04-15T03:14:39.716Z,100.214
2023-04-15T03:15:39.786Z,100.143
2023-04-15T03:16:39.793Z,100.214
2023-04-15T03:17:39.856Z,100.214
2023-04-15T03:18:39.868Z,100.214
2023-04-15T03:19:39.957Z,100.143
2023-04-15T03:20:40.075Z,100.143
2023-04-15T03:21:39.996Z,100.357
2023-04-15T03:22:40.040Z,100.214
2023-04-15T03:23:40.086Z,100.357
2023-04-15T03:24:40.111Z,100.214
2023-04-15T03:25:40.166Z,100.143
2023-04-15T03:26:40.186Z,100.357
2023-04-15T03:27:40.226Z,100.143
2023-04-15T03:28:40.278Z,100.214
2023-04-15T03:29:40.325Z,100.143
2023-04-15T03:30:40.349Z,100.143
2023-04-15T03:31:40.434Z,100.143
2023-04-15T03:32:40.494Z,100
2023-04-15T03:33:40.481Z,100.214
2023-04-15T03:34:40.518Z,100.143
2023-04-15T03:35:40.568Z,100.143
2023-04-15T03:36:40.609Z,100.143
2023-04-15T03:37:40.656Z,100.214
2023-04-15T03:38:40.697Z,100.357
2023-04-15T03:39:40.738Z,100.143
2023-04-15T03:40:40.776Z,100.143
2023-04-15T03:41:40.813Z,100.214
2023-04-15T03:42:40.848Z,100.143
2023-04-15T03:43:40.888Z,100.143
2023-04-15T03:44:40.930Z,100.286
2023-04-15T03:45:40.985Z,100.214
2023-04-15T03:46:41.049Z,100.214
2023-04-15T03:47:41.078Z,100
2023-04-15T03:48:41.102Z,100.143
2023-04-15T03:49:41.141Z,100.214
2023-04-15T03:50:41.182Z,100.214
2023-04-15T03:51:41.217Z,100.214
2023-04-15T03:52:41.264Z,100.143
2023-04-15T03:53:41.307Z,100.214
2023-04-15T03:54:41.353Z,100.143
2023-04-15T03:55:41.397Z,100.357
2023-04-15T03:56:41.451Z,100.143
2023-04-15T03:57:41.481Z,100.214
2023-04-15T03:58:41.524Z,100.143
2023-04-15T03:59:41.564Z,100.143
2023-04-15T04:00:41.635Z,100.143
2023-04-15T04:01:41.750Z,100.214
2023-04-15T04:02:41.879Z,100.143
2023-04-15T04:03:41.901Z,100.429
2023-04-15T04:04:41.827Z,100.214
2023-04-15T04:05:41.790Z,100.214
2023-04-15T04:06:41.834Z,100.286
2023-04-15T04:07:41.869Z,100.143
2023-04-15T04:08:41.905Z,100.214
2023-04-15T04:09:41.952Z,100.071
2023-04-15T04:10:42.000Z,100
2023-04-15T04:11:42.039Z,100.357
2023-04-15T04:12:42.072Z,100.143
2023-04-15T04:13:42.115Z,100.214
2023-04-15T04:14:42.154Z,100
2023-04-15T04:15:42.256Z,100.143
2023-04-15T04:16:42.300Z,100.357
2023-04-15T04:17:42.333Z,100.357
2023-04-15T04:18:42.323Z,100.357
2023-04-15T04:19:42.360Z,100.214
2023-04-15T04:20:42.397Z,100.214
2023-04-15T04:21:42.429Z,100.357
2023-04-15T04:22:42.476Z,100.357
2023-04-15T04:23:42.505Z,100.214
2023-04-15T04:24:42.545Z,100.143
2023-04-15T04:25:42.591Z,100.214
2023-04-15T04:26:42.640Z,100.143
2023-04-15T04:27:42.675Z,100.214
2023-04-15T04:28:42.716Z,100.214
2023-04-15T04:29:42.753Z,100.214
2023-04-15T04:30:42.801Z,100.143
2023-04-15T04:31:42.872Z,100.143
2023-04-15T04:32:42.918Z,100.214
2023-04-15T04:33:42.911Z,100.214
2023-04-15T04:34:42.970Z,100.143
2023-04-15T04:35:43.017Z,100.214
2023-04-15T04:36:43.044Z,100.143
2023-04-15T04:37:43.081Z,100.357
2023-04-15T04:38:43.117Z,100.357
2023-04-15T04:39:43.160Z,100.143
2023-04-15T04:40:43.202Z,100.214
2023-04-15T04:41:43.236Z,100.214
2023-04-15T04:42:43.270Z,100.214
2023-04-15T04:43:43.317Z,100.286
2023-04-15T04:44:43.360Z,100.214
2023-04-15T04:45:43.458Z,100.143
2023-04-15T04:46:43.427Z,100.143
2023-04-15T04:47:43.516Z,100.214
2023-04-15T04:48:44.418Z,100.286
2023-04-15T04:49:43.573Z,100.286
2023-04-15T04:50:43.585Z,100.357
2023-04-15T04:51:43.619Z,100.357
2023-04-15T04:52:43.672Z,100.286
2023-04-15T04:53:43.710Z,100.357
2023-04-15T04:54:43.755Z,100.143
2023-04-15T04:55:43.790Z,100.357
2023-04-15T04:56:43.834Z,100.143
2023-04-15T04:57:43.866Z,100.286
2023-04-15T04:58:43.902Z,100
2023-04-15T04:59:43.937Z,100.143
2023-04-15T05:00:43.985Z,100.429
2023-04-15T05:01:44.067Z,100.286
2023-04-15T05:02:44.339Z,100.214
2023-04-15T05:03:44.171Z,100.357
2023-04-15T05:04:44.143Z,100.143
2023-04-15T05:05:44.173Z,100.143
2023-04-15T05:06:44.234Z,100.429
2023-04-15T05:07:44.272Z,100.143
2023-04-15T05:08:44.309Z,100.143
2023-04-15T05:09:44.345Z,100.357
2023-04-15T05:10:44.389Z,100.214
2023-04-15T05:11:44.429Z,100.357
2023-04-15T05:12:44.468Z,100.214
2023-04-15T05:13:44.531Z,100.214
2023-04-15T05:14:44.544Z,100.143
2023-04-15T05:15:44.604Z,100.214
2023-04-15T05:16:44.630Z,100.357
2023-04-15T05:17:44.743Z,100.214
2023-04-15T05:18:44.707Z,100.214
2023-04-15T05:19:44.748Z,100.143
2023-04-15T05:20:44.794Z,100.214
2023-04-15T05:21:44.833Z,100.286
2023-04-15T05:22:44.879Z,100.357
2023-04-15T05:23:44.916Z,100.429
2023-04-15T05:24:44.961Z,100.357
2023-04-15T05:25:44.997Z,100.071
2023-04-15T05:26:45.042Z,100.429
2023-04-15T05:27:45.084Z,100.286
2023-04-15T05:28:45.112Z,100.286
2023-04-15T05:29:45.149Z,100.357
2023-04-15T05:30:45.204Z,100.214
2023-04-15T05:31:45.225Z,100.429
2023-04-15T05:32:45.495Z,100.214
2023-04-15T05:33:45.318Z,100.071
2023-04-15T05:34:45.359Z,100.143
2023-04-15T05:35:45.383Z,100.214
2023-04-15T05:36:45.435Z,100.286
2023-04-15T05:37:45.467Z,100.071
2023-04-15T05:38:45.510Z,100.214
2023-04-15T05:39:45.554Z,100.214
2023-04-15T05:40:45.590Z,100.429
2023-04-15T05:41:45.635Z,100.214
2023-04-15T05:42:45.677Z,100.214
2023-04-15T05:43:45.717Z,100.357
2023-04-15T05:44:45.758Z,100.143
2023-04-15T05:45:45.807Z,100.071
2023-04-15T05:46:45.835Z,100.214
2023-04-15T05:47:45.899Z,100.214
2023-04-15T05:48:45.930Z,100.214
2023-04-15T05:49:45.956Z,100.286
2023-04-15T05:50:46.005Z,100.357
2023-04-15T05:51:46.048Z,100.286
2023-04-15T05:52:46.084Z,100.286
2023-04-15T05:53:46.151Z,100.214
2023-04-15T05:54:46.156Z,100.143
2023-04-15T05:55:46.191Z,100.143
2023-04-15T05:56:46.234Z,100.214
2023-04-15T05:57:46.266Z,100.286
2023-04-15T05:58:46.311Z,100.286
2023-04-15T05:59:46.352Z,100.286
2023-04-15T06:00:46.421Z,100.071
2023-04-15T06:01:46.488Z,100.214
2023-04-15T06:02:46.540Z,100.214
2023-04-15T06:03:46.654Z,100.286
2023-04-15T06:04:46.618Z,100.143
2023-04-15T06:05:46.610Z,100.143
2023-04-15T06:06:46.630Z,100.143
2023-04-15T06:07:48.413Z,100.286
2023-04-15T06:08:46.706Z,100.286
2023-04-15T06:09:46.758Z,100.286
2023-04-15T06:10:46.780Z,100.143
2023-04-15T06:11:46.829Z,100.286
2023-04-15T06:12:46.870Z,100.214
2023-04-15T06:13:46.907Z,100.143
2023-04-15T06:14:46.951Z,100.286
2023-04-15T06:15:46.985Z,100.286
2023-04-15T06:16:47.053Z,100.214
2023-04-15T06:17:47.085Z,100.286
2023-04-15T06:18:47.092Z,100.071
2023-04-15T06:19:47.128Z,100.071
2023-04-15T06:20:47.171Z,100.357
2023-04-15T06:21:47.215Z,100.214
2023-04-15T06:22:47.259Z,100.286
2023-04-15T06:23:47.289Z,100.286
2023-04-15T06:24:47.338Z,100.286
2023-04-15T06:25:47.380Z,100.143
2023-04-15T06:26:47.425Z,100.214
2023-04-15T06:27:47.465Z,100.286
2023-04-15T06:28:47.497Z,100.143
2023-04-15T06:29:47.540Z,100.286
2023-04-15T06:30:47.579Z,100.286
2023-04-15T06:31:47.677Z,100.143
2023-04-15T06:32:47.652Z,100.429
2023-04-15T06:33:47.702Z,100.286
2023-04-15T06:34:47.741Z,100.286
2023-04-15T06:35:47.767Z,100.214
2023-04-15T06:36:47.812Z,100.214
2023-04-15T06:37:47.848Z,100.214
2023-04-15T06:38:47.889Z,100.214
2023-04-15T06:39:47.928Z,100.214
2023-04-15T06:40:47.975Z,100.286
2023-04-15T06:41:48.012Z,100.214
2023-04-15T06:42:48.044Z,100.214
2023-04-15T06:43:48.093Z,100.357
2023-04-15T06:44:48.123Z,100.286
2023-04-15T06:45:48.194Z,100.286
2023-04-15T06:46:48.199Z,100.286
2023-04-15T06:47:48.254Z,100.357
2023-04-15T06:48:48.281Z,100.286
2023-04-15T06:49:48.329Z,100.286
2023-04-15T06:50:48.379Z,100.286
2023-04-15T06:51:48.413Z,100.286
2023-04-15T06:52:48.451Z,100.286
2023-04-15T06:53:48.483Z,100.286
2023-04-15T06:54:48.531Z,100.286
2023-04-15T06:55:48.580Z,100.286
2023-04-15T06:56:48.615Z,100.286
2023-04-15T06:57:48.692Z,100.286
2023-04-15T06:58:48.691Z,100.286
2023-04-15T06:59:48.731Z,100.357
2023-04-15T07:00:48.814Z,100.357
2023-04-15T07:01:48.848Z,100.429
2023-04-15T07:02:48.883Z,100.214
2023-04-15T07:03:48.910Z,100.429
2023-04-15T07:04:48.961Z,100.357
2023-04-15T07:05:48.984Z,100.357
2023-04-15T07:06:49.025Z,100.429
2023-04-15T07:07:49.055Z,100.429
2023-04-15T07:08:49.090Z,100.429
2023-04-15T07:09:49.132Z,100.357
2023-04-15T07:10:49.166Z,100.357
2023-04-15T07:11:49.207Z,100.357
2023-04-15T07:12:49.261Z,100.357
2023-04-15T07:13:49.300Z,100.214
2023-04-15T07:14:49.344Z,100.286
2023-04-15T07:15:49.381Z,100.5
2023-04-15T07:16:49.479Z,100.286
2023-04-15T07:17:49.519Z,100.429
2023-04-15T07:18:49.498Z,100.357
2023-04-15T07:19:49.539Z,100.286
2023-04-15T07:20:49.574Z,100.5
2023-04-15T07:21:49.614Z,100.286
2023-04-15T07:22:49.659Z,100.429
2023-04-15T07:23:49.709Z,100.357
2023-04-15T07:24:49.762Z,100.214
2023-04-15T07:25:49.781Z,100.357
2023-04-15T07:26:49.814Z,100.286
2023-04-15T07:27:49.856Z,100.357
2023-04-15T07:28:49.895Z,100.286
2023-04-15T07:29:49.947Z,100.357
2023-04-15T07:30:50.186Z,100.286
2023-04-15T07:31:50.026Z,100.357
2023-04-15T07:32:50.074Z,100.429
2023-04-15T07:33:50.122Z,100.214
2023-04-15T07:34:50.167Z,100.429
2023-04-15T07:35:50.212Z,100.5
2023-04-15T07:36:50.241Z,100.214
2023-04-15T07:37:50.278Z,100.286
2023-04-15T07:38:50.321Z,100.286
2023-04-15T07:39:50.359Z,100.286
2023-04-15T07:40:50.400Z,100.357
2023-04-15T07:41:50.489Z,100.429
2023-04-15T07:42:50.503Z,100.214
2023-04-15T07:43:50.533Z,100.429
2023-04-15T07:44:50.559Z,100.429
2023-04-15T07:45:50.618Z,100.429
2023-04-15T07:46:50.644Z,100.214
2023-04-15T07:47:50.804Z,100.357
2023-04-15T07:48:50.712Z,100.357
2023-04-15T07:49:50.744Z,100.286
2023-04-15T07:50:50.783Z,100.286
2023-04-15T07:51:50.824Z,100.571
2023-04-15T07:52:50.864Z,100.429
2023-04-15T07:53:50.907Z,100.286
2023-04-15T07:54:50.945Z,100.286
2023-04-15T07:55:50.982Z,100.286
2023-04-15T07:56:51.022Z,100.214
2023-04-15T07:57:51.072Z,100.214
2023-04-15T07:58:51.106Z,100.214
2023-04-15T07:59:51.156Z,100.357
2023-04-15T08:00:51.184Z,100.429
2023-04-15T08:01:51.258Z,100.5
2023-04-15T08:02:51.340Z,100.357
2023-04-15T08:03:51.434Z,100.357
2023-04-15T08:04:51.636Z,100.5
2023-04-15T08:05:51.396Z,100.357
2023-04-15T08:06:51.419Z,100.357
2023-04-15T08:07:51.464Z,100.214
2023-04-15T08:08:51.509Z,100.357
2023-04-15T08:09:51.554Z,100.429
2023-04-15T08:10:52.851Z,100.5
2023-04-15T08:11:51.642Z,100.429
2023-04-15T08:12:51.665Z,100.429
2023-04-15T08:13:51.718Z,100.429
2023-04-15T08:14:51.747Z,100.429
2023-04-15T08:15:51.822Z,100.5
2023-04-15T08:16:51.826Z,100.429
2023-04-15T08:17:51.916Z,100.429
2023-04-15T08:18:51.928Z,100.357
2023-04-15T08:19:51.951Z,100.357
2023-04-15T08:20:51.988Z,100.429
2023-04-15T08:21:52.086Z,100.429
2023-04-15T08:22:52.281Z,100.357
2023-04-15T08:23:52.112Z,100.429
2023-04-15T08:24:52.159Z,100.429
2023-04-15T08:25:52.189Z,100.429
2023-04-15T08:26:52.232Z,100.357
2023-04-15T08:27:52.272Z,100.429
2023-04-15T08:28:52.312Z,100.429
2023-04-15T08:29:52.352Z,100.429
2023-04-15T08:30:52.379Z,100.429
2023-04-15T08:31:52.536Z,100.429
2023-04-15T08:32:52.481Z,100.429
2023-04-15T08:33:52.518Z,100.429
2023-04-15T08:34:52.560Z,100.429
2023-04-15T08:35:52.602Z,100.429
2023-04-15T08:36:52.637Z,100.429
2023-04-15T08:37:52.670Z,100.429
2023-04-15T08:38:52.726Z,100.429
2023-04-15T08:39:52.760Z,100.429
2023-04-15T08:40:52.806Z,100.429
2023-04-15T08:41:52.840Z,100.357
2023-04-15T08:42:52.875Z,100.429
2023-04-15T08:43:52.909Z,100.429
2023-04-15T08:44:52.961Z,100.429
2023-04-15T08:45:52.993Z,100.429
2023-04-15T08:46:53.036Z,100.429
2023-04-15T08:47:53.213Z,100.429
2023-04-15T08:48:53.106Z,100.429
2023-04-15T08:49:53.151Z,100.429
2023-04-15T08:50:53.200Z,100.429
2023-04-15T08:51:53.244Z,100.429
2023-04-15T08:52:53.277Z,100.429
2023-04-15T08:53:53.330Z,100.429
2023-04-15T08:54:53.371Z,100.357
2023-04-15T08:55:53.417Z,100.429
2023-04-15T08:56:53.477Z,100.429
2023-04-15T08:57:53.492Z,100.429
2023-04-15T08:58:53.530Z,100.429
2023-04-15T08:59:53.574Z,100.429
2023-04-15T09:00:53.661Z,100.429
2023-04-15T09:01:53.727Z,100.429
2023-04-15T09:02:53.807Z,100.429
2023-04-15T09:03:53.818Z,100.429
2023-04-15T09:04:53.772Z,100.357
2023-04-15T09:05:53.802Z,100.429
2023-04-15T09:06:53.986Z,100.429
2023-04-15T09:08:53.938Z,100.429
2023-04-15T09:09:53.987Z,100.429
2023-04-15T09:10:54.037Z,100.429
2023-04-15T09:11:54.070Z,100.429
2023-04-15T09:12:54.092Z,100.571
2023-04-15T09:13:54.140Z,100.5
2023-04-15T09:14:54.178Z,100.429
2023-04-15T09:15:54.216Z,100.429
2023-04-15T09:16:54.323Z,100.429
2023-04-15T09:17:54.348Z,100.429
2023-04-15T09:18:54.372Z,100.429
2023-04-15T09:19:54.378Z,100.429
2023-04-15T09:20:54.414Z,100.429
2023-04-15T09:21:56.564Z,100.429
2023-04-15T09:22:54.516Z,100.429
2023-04-15T09:23:54.565Z,100.429
2023-04-15T09:24:54.597Z,100.571
2023-04-15T09:25:54.631Z,100.429
2023-04-15T09:26:54.673Z,100.429
2023-04-15T09:27:54.696Z,100.429
2023-04-15T09:28:54.741Z,100.429
2023-04-15T09:29:54.781Z,100.429
2023-04-15T09:30:54.913Z,100.429
2023-04-15T09:31:54.883Z,100.429
2023-04-15T09:32:54.926Z,100.357
2023-04-15T09:33:54.978Z,100.429
2023-04-15T09:34:54.998Z,100.429
2023-04-15T09:35:55.060Z,100.429
2023-04-15T09:36:55.110Z,100.429
2023-04-15T09:37:55.110Z,100.357
2023-04-15T09:38:55.178Z,100.429
2023-04-15T09:39:55.201Z,100.429
2023-04-15T09:40:55.224Z,100.429
2023-04-15T09:41:55.270Z,100.429
2023-04-15T09:42:55.297Z,100.429
2023-04-15T09:43:55.344Z,100.429
2023-04-15T09:44:55.420Z,100.429
2023-04-15T09:45:55.459Z,100.357
2023-04-15T09:46:55.452Z,100.429
2023-04-15T09:47:56.947Z,100.5
2023-04-15T09:48:55.611Z,100.5
2023-04-15T09:49:55.693Z,100.5
2023-04-15T09:50:55.633Z,100.5
2023-04-15T09:52:05.006Z,100.357
2023-04-15T09:52:55.702Z,100.357
2023-04-15T09:53:55.722Z,100.214
2023-04-15T09:54:55.760Z,100.357
2023-04-15T09:55:55.794Z,100.357
2023-04-15T09:56:55.839Z,100.5
2023-04-15T09:57:55.883Z,100.5
2023-04-15T09:58:55.921Z,100.357
2023-04-15T09:59:55.959Z,100.429
2023-04-15T10:00:56.017Z,100.429
2023-04-15T10:01:56.126Z,100.5
2023-04-15T10:02:56.444Z,100.429
2023-04-15T10:03:56.198Z,100.5
2023-04-15T10:04:56.163Z,100.429
2023-04-15T10:05:56.196Z,100.357
2023-04-15T10:06:56.241Z,100.5
2023-04-15T10:07:56.277Z,100.5
2023-04-15T10:08:56.324Z,100.5
2023-04-15T10:09:56.367Z,100.429
2023-04-15T10:10:56.410Z,100.429
2023-04-15T10:11:56.460Z,100.429
2023-04-15T10:12:56.484Z,100.429
2023-04-15T10:13:56.532Z,100.5
2023-04-15T10:14:56.568Z,100.429
2023-04-15T10:15:56.632Z,100.429
2023-04-15T10:16:56.643Z,100.429
2023-04-15T10:17:56.756Z,100.5
2023-04-15T10:18:56.738Z,100.5
2023-04-15T10:19:56.769Z,100.429
2023-04-15T10:20:56.813Z,100.429
2023-04-15T10:21:56.852Z,100.429
2023-04-15T10:22:56.900Z,100.429
2023-04-15T10:23:56.948Z,100.429
2023-04-15T10:24:56.982Z,100.5
2023-04-15T10:25:57.009Z,100.429
2023-04-15T10:26:57.057Z,100.429
2023-04-15T10:27:57.098Z,100.429
2023-04-15T10:28:58.425Z,100.429
2023-04-15T10:29:57.186Z,100.429
2023-04-15T10:30:57.244Z,100.429
2023-04-15T10:31:57.262Z,100.5
2023-04-15T10:32:57.368Z,100.429
2023-04-15T10:33:57.349Z,100.5
2023-04-15T10:34:57.385Z,100.5
2023-04-15T10:35:57.423Z,100.429
2023-04-15T10:36:57.477Z,100.429
2023-04-15T10:37:57.513Z,100.5
2023-04-15T10:38:57.553Z,100.429
2023-04-15T10:39:57.600Z,100.429
2023-04-15T10:40:57.627Z,100.5
2023-04-15T10:41:57.678Z,100.429
2023-04-15T10:42:57.708Z,100.5
2023-04-15T10:43:57.814Z,100.429
2023-04-15T10:44:57.803Z,100.429
2023-04-15T10:45:57.846Z,100.429
2023-04-15T10:46:57.952Z,100.429
2023-04-15T10:47:57.963Z,100.357
2023-04-15T10:48:57.963Z,100.429
2023-04-15T10:49:58.003Z,100.429
2023-04-15T10:50:58.069Z,100.429
2023-04-15T10:51:58.097Z,100.429
2023-04-15T10:52:58.135Z,100.429
2023-04-15T10:53:58.200Z,100.429
2023-04-15T10:54:58.204Z,100.286
2023-04-15T10:55:58.254Z,100.429
2023-04-15T10:56:58.302Z,100.429
2023-04-15T10:57:58.333Z,100.5
2023-04-15T10:58:58.380Z,100.429
2023-04-15T10:59:58.425Z,100.429
2023-04-15T11:00:58.471Z,100.643
2023-04-15T11:01:58.611Z,100.429
2023-04-15T11:02:58.663Z,100.5
2023-04-15T11:03:58.707Z,100.429
2023-04-15T11:04:58.632Z,100.5
2023-04-15T11:05:58.672Z,100.429
2023-04-15T11:06:58.704Z,100.429
2023-04-15T11:07:58.832Z,100.429
2023-04-15T11:08:58.792Z,100.429
2023-04-15T11:09:58.829Z,100.5
2023-04-15T11:10:58.875Z,100.571
2023-04-15T11:11:58.909Z,100.5
2023-04-15T11:12:58.960Z,100.5
2023-04-15T11:13:58.987Z,100.5
2023-04-15T11:14:59.020Z,100.571
2023-04-15T11:15:59.112Z,100.5
2023-04-15T11:16:59.112Z,100.571
2023-04-15T11:17:59.176Z,100.571
2023-04-15T11:18:59.195Z,100.571
2023-04-15T11:19:59.246Z,100.429
2023-04-15T11:20:59.291Z,100.643
2023-04-15T11:21:59.324Z,100.5
2023-04-15T11:23:13.012Z,100.571
2023-04-15T11:23:59.850Z,100.643
2023-04-15T11:24:59.443Z,100.571
2023-04-15T11:25:59.503Z,100.5
2023-04-15T11:26:59.530Z,100.643
2023-04-15T11:27:59.570Z,100.643
2023-04-15T11:28:59.607Z,100.5
2023-04-15T11:29:59.654Z,100.643
2023-04-15T11:30:59.695Z,100.5
2023-04-15T11:31:59.791Z,100.5
2023-04-15T11:32:59.810Z,100.5
2023-04-15T11:33:59.886Z,100.5
2023-04-15T11:34:59.849Z,100.5
2023-04-15T11:35:59.885Z,100.643
2023-04-15T11:36:59.926Z,100.357
2023-04-15T11:37:59.975Z,100.643
2023-04-15T11:39:00.012Z,100.643
2023-04-15T11:40:00.053Z,100.643
2023-04-15T11:41:00.104Z,100.643
2023-04-15T11:42:00.133Z,100.571
2023-04-15T11:43:00.196Z,100.643
2023-04-15T11:44:00.218Z,100.643
2023-04-15T11:45:00.246Z,100.571
2023-04-15T11:46:00.419Z,100.429
2023-04-15T11:47:00.331Z,100.571
2023-04-15T11:48:00.429Z,100.643
2023-04-15T11:49:00.449Z,100.643
2023-04-15T11:50:00.449Z,100.571
2023-04-15T11:51:00.502Z,100.571
2023-04-15T11:52:00.536Z,100.643
2023-04-15T11:53:00.561Z,100.5
2023-04-15T11:54:00.605Z,100.5
2023-04-15T11:55:00.638Z,100.643
2023-04-15T11:56:00.679Z,100.5
2023-04-15T11:57:00.714Z,100.643
2023-04-15T11:58:00.763Z,100.571
2023-04-15T11:59:00.813Z,100.5
2023-04-15T12:00:00.840Z,100.643
2023-04-15T12:01:00.889Z,100.643
2023-04-15T12:02:00.999Z,100.643
2023-04-15T12:03:01.092Z,100.643
2023-04-15T12:04:01.092Z,100.5
2023-04-15T12:05:01.101Z,100.643
2023-04-15T12:06:01.065Z,100.643
2023-04-15T12:07:01.120Z,100.643
2023-04-15T12:08:01.146Z,100.643
2023-04-15T12:09:01.201Z,100.643
2023-04-15T12:10:01.229Z,100.571
2023-04-15T12:11:01.273Z,100.643
2023-04-15T12:12:01.328Z,100.643